Flight Track Log - Related Links

Times and Time Zones

All times are in EDT time to prevent confusion due to time zone crossing. See the SWA429 flight status page for this flight to view local times or setup timezone preferences in your user account.

Time Position Orientation Groundspeed Altitude Reporting Facility
EDT Latitude Longitude Course Direction KTS MPH feet Rate Location/Type
Fri 12:41:09 PM 41.8000 -87.7833 217° Southwest 169 194 2,100  Level Chicago TRACON
Fri 12:42:09 PM 41.7500 -87.8333 217° Southwest 266 306 4,600 3,100 Climbing Chicago TRACON
Fri 12:43:09 PM 41.6833 -87.7833 151° Southeast 276 318 8,300 2,830 Climbing Chicago TRACON
Fri 12:44:48 PM 41.5839 -87.6983 147° Southeast 287 330 12,100 1,975 Climbing Chicago Center
Fri 12:45:50 PM 41.5014 -87.6339 150° Southeast 337 388 13,600 1,872 Climbing Chicago Center
Fri 12:46:53 PM 41.4108 -87.5717 153° Southeast 369 425 16,000 2,352 Climbing Chicago Center
Fri 12:47:55 PM 41.3094 -87.5533 172° South 365 420 18,500 2,274 Climbing Chicago Center
Fri 12:48:57 PM 41.1867 -87.5306 172° South 370 426 20,700 1,984 Climbing Chicago Center
Fri 12:49:59 PM 41.0800 -87.5003 168° South 389 448 22,600 1,694 Climbing Chicago Center
Fri 12:51:01 PM 40.9706 -87.4725 169° South 397 457 24,200 1,597 Climbing Chicago Center
Fri 12:52:03 PM 40.8589 -87.4425 169° South 407 468 25,900 1,742 Climbing Chicago Center
Fri 12:53:05 PM 40.7481 -87.4125 168° South 407 468 27,800 1,887 Climbing Chicago Center
Fri 12:54:07 PM 40.6169 -87.3789 169° South 401 461 29,800 1,452 Climbing Chicago Center
Fri 12:55:09 PM 40.5081 -87.3489 168° South 399 459 30,800 1,210 Climbing Chicago Center
Fri 12:56:11 PM 40.4128 -87.3181 166° South 407 468 32,300 1,500 Climbing Chicago Center
Fri 12:57:13 PM 40.2881 -87.2572 160° South 399 459 33,900 1,296 Climbing Chicago Center
Fri 12:58:16 PM 40.1847 -87.2089 160° South 397 457 35,000 589 Climbing Chicago Center
Fri 12:59:05 PM 40.1000 -87.1706 161° South 396 456 35,000  Level Indianapolis Center
Fri 01:00:07 PM 39.9981 -87.1181 158° South 397 457 35,000  Level Indianapolis Center
Fri 01:01:09 PM 39.9061 -87.0231 142° Southeast 421 484 35,000  Level Indianapolis Center
Fri 01:02:11 PM 39.7975 -86.9081 141° Southeast 422 486 35,000  Level Indianapolis Center
Fri 01:03:13 PM 39.7078 -86.8119 140° Southeast 423 487 35,000  Level Indianapolis Center
Fri 01:04:15 PM 39.6169 -86.7156 141° Southeast 425 489 35,000  Level Indianapolis Center
Fri 01:05:17 PM 39.5269 -86.6211 141° Southeast 423 487 35,000  Level Indianapolis Center
Fri 01:06:19 PM 39.4206 -86.5086 141° Southeast 419 482 35,000  Level Indianapolis Center
Fri 01:07:21 PM 39.3314 -86.4142 141° Southeast 419 482 35,000  Level Indianapolis Center
Fri 01:08:24 PM 39.2417 -86.3211 141° Southeast 417 480 35,000  Level Indianapolis Center
Fri 01:09:26 PM 39.1517 -86.2275 141° Southeast 418 481 35,000  Level Indianapolis Center
Fri 01:10:28 PM 39.0625 -86.1347 141° Southeast 416 479 35,000  Level Indianapolis Center
Fri 01:11:30 PM 38.9547 -86.0239 141° Southeast 415 478 35,000  Level Indianapolis Center
Fri 01:12:32 PM 38.8689 -85.9353 141° Southeast 418 481 35,000  Level Indianapolis Center
Fri 01:13:34 PM 38.7733 -85.8375 141° Southeast 421 484 35,000  Level Indianapolis Center
Fri 01:14:36 PM 38.6814 -85.7436 141° Southeast 423 487 35,000  Level Indianapolis Center
Fri 01:15:38 PM 38.5906 -85.6517 142° Southeast 425 489 35,000  Level Indianapolis Center
Fri 01:16:40 PM 38.4794 -85.5378 141° Southeast 424 488 35,000  Level Indianapolis Center
Fri 01:17:42 PM 38.3864 -85.4419 141° Southeast 424 488 35,000  Level Indianapolis Center
Fri 01:18:44 PM 38.2900 -85.3461 142° Southeast 434 499 35,000  Level Indianapolis Center
Fri 01:19:46 PM 38.1939 -85.2508 142° Southeast 435 501 35,000  Level Indianapolis Center
Fri 01:20:48 PM 38.0917 -85.1469 141° Southeast 435 501 35,000  Level Indianapolis Center
Fri 01:21:50 PM 37.9964 -85.0511 142° Southeast 438 504 35,000  Level Indianapolis Center
Fri 01:22:52 PM 37.8994 -84.9558 142° Southeast 440 506 35,000 -145 Level Indianapolis Center
Fri 01:23:54 PM 37.8033 -84.8597 142° Southeast 441 507 34,700 -629 Descending Indianapolis Center
Fri 01:24:56 PM 37.7047 -84.7650 143° Southeast 443 510 33,700 -823 Descending Indianapolis Center
Fri 01:25:58 PM 37.5919 -84.6536 142° Southeast 441 507 33,000 -339 Descending Indianapolis Center
Fri 01:27:00 PM 37.4944 -84.5569 142° Southeast 445 512 33,000  Level Indianapolis Center
Fri 01:28:02 PM 37.3964 -84.4608 142° Southeast 447 514 33,000  Level Indianapolis Center
Fri 01:29:03 PM 37.2967 -84.3656 143° Southeast 449 517 33,000 -439 Level Indianapolis Center
Fri 01:30:05 PM 37.1978 -84.2681 142° Southeast 451 519 32,100 -968 Descending Indianapolis Center
Fri 01:31:07 PM 37.0828 -84.1572 142° Southeast 448 516 31,000 -1,113 Descending Indianapolis Center
Fri 01:32:09 PM 36.9931 -84.0517 137° Southeast 446 513 29,800 -1,161 Descending Indianapolis Center
Fri 01:33:11 PM 36.9089 -83.9353 132° Southeast 450 518 28,600 -1,161 Descending Indianapolis Center
Fri 01:34:13 PM 36.8253 -83.8197 132° Southeast 449 517 27,400 -1,161 Descending Indianapolis Center
Fri 01:35:15 PM 36.7400 -83.7036 132° Southeast 453 521 26,200 -1,403 Descending Indianapolis Center
Fri 01:36:17 PM 36.6439 -83.5694 132° Southeast 448 516 24,500 -1,065 Descending Indianapolis Center
Fri 01:37:19 PM 36.5622 -83.4586 133° Southeast 440 506 24,000 -242 Descending Indianapolis Center
Fri 01:38:21 PM 36.4853 -83.3539 132° Southeast 419 482 24,000  Level Indianapolis Center
Fri 01:38:46 PM 36.4461 -83.3058 135° Southeast 418 481 24,000 -706 Level Atlanta Center
Fri 01:39:46 PM 36.3683 -83.1981 132° Southeast 418 481 23,000 -500 Descending Atlanta Center
Fri 01:40:46 PM 36.2819 -83.1064 139° Southeast 413 475 23,000 -300 Level Atlanta Center
Fri 01:41:46 PM 36.1939 -83.0172 141° Southeast 413 475 22,400 -900 Descending Atlanta Center
Fri 01:42:46 PM 36.0992 -82.9336 144° Southeast 413 475 21,200 -700 Descending Atlanta Center
Fri 01:43:46 PM 35.9944 -82.8864 160° South 398 458 21,000 -250 Descending Atlanta Center
Fri 01:44:46 PM 35.9081 -82.8006 141° Southeast 393 452 20,700 -850 Descending Atlanta Center
Fri 01:45:46 PM 35.8300 -82.7172 139° Southeast 393 452 19,300 -1,150 Descending Atlanta Center
Fri 01:46:46 PM 35.7583 -82.6414 139° Southeast 386 444 18,400 -1,100 Descending Atlanta Center
Fri 01:47:46 PM 35.6758 -82.5533 139° Southeast 362 417 17,100 -1,350 Descending Atlanta Center
Fri 01:48:46 PM 35.6039 -82.4756 139° Southeast 354 407 15,700 -1,650 Descending Atlanta Center
Fri 01:49:46 PM 35.5342 -82.4056 141° Southeast 341 392 13,800 -1,900 Descending Atlanta Center
Fri 01:50:46 PM 35.4644 -82.3328 140° Southeast 335 386 11,900 -1,750 Descending Atlanta Center
Fri 01:51:46 PM 35.3947 -82.2706 144° Southeast 320 368 10,300 -1,400 Descending Atlanta Center
Fri 01:52:46 PM 35.3172 -82.2622 175° South 292 336 9,100 -1,250 Descending Atlanta Center
Fri 01:53:46 PM 35.2525 -82.2458 168° South 273 314 7,800 -1,350 Descending Atlanta Center
Fri 01:54:46 PM 35.1853 -82.2217 164° South 260 299 6,400 -1,350 Descending Atlanta Center
Fri 01:55:46 PM 35.1225 -82.2028 166° South 244 281 5,100 -900 Descending Atlanta Center
Fri 01:56:46 PM 35.0636 -82.1839 165° South 224 258 4,600 -950 Descending Atlanta Center
Fri 01:57:46 PM 35.0175 -82.1722 168° South 192 221 3,200 3,200 Descending Atlanta Center
Fri 01:58:46 PM 34.9569 -82.1583 169° South 192 221 11,000 7,800 Climbing Atlanta Center
Fri 02:00:00 PM 34.8957 -82.2189 180° South  Level Estimated
Fri 02:07:00 PM 34.8957 -82.2189 180° South  Level Estimated

Login

Don't have an account? Register now (free) for customized features, flight alerts, and more!